Time;durP1;ratioP1;P1;durP2;ratioP2;P2;SDS_P1;SDS_P2;PMS_P1;PMS_P2;Temp;Humidity;BMP_temperature;BMP_pressure;BME280_temperature;BME280_humidity;BME280_pressure;Samples;Min_cycle;Max_cycle;Signal;HPM_P1;HPM_P2
2022/06/24 00:02:01;;;;;;;5.13;1.35;;;22.80;98.70;;;;;;5060008;28;20582;-79
2022/06/24 00:04:30;;;;;;;4.10;1.55;;;22.80;98.70;;;;;;5076664;28;20618;-80
2022/06/24 00:06:57;;;;;;;3.10;2.08;;;22.80;98.80;;;;;;5061161;28;20045;-80
2022/06/24 00:09:29;;;;;;;2.50;1.50;;;22.70;98.90;;;;;;5062321;28;20037;-79
2022/06/24 00:12:07;;;;;;;4.93;1.73;;;22.70;99.00;;;;;;5059267;28;20036;-79
2022/06/24 00:14:33;;;;;;;2.40;1.23;;;22.60;99.10;;;;;;5058652;28;20053;-79
2022/06/24 00:17:01;;;;;;;2.35;1.30;;;22.60;99.20;;;;;;5060738;28;20584;-79
2022/06/24 00:19:30;;;;;;;2.35;1.40;;;22.60;99.30;;;;;;5062296;28;20095;-79
2022/06/24 00:22:06;;;;;;;2.22;1.50;;;22.50;99.40;;;;;;5062634;28;20091;-80
2022/06/24 00:24:34;;;;;;;3.00;1.30;;;22.50;99.70;;;;;;5062265;28;20575;-80
2022/06/24 00:27:00;;;;;;;4.97;1.50;;;22.40;99.90;;;;;;5060382;28;20056;-80
2022/06/24 00:29:28;;;;;;;2.70;1.48;;;22.40;99.90;;;;;;5062707;28;20044;-79
2022/06/24 00:32:04;;;;;;;4.25;2.30;;;22.50;99.90;;;;;;5057687;28;20131;-80
2022/06/24 00:34:31;;;;;;;4.53;2.15;;;22.50;99.90;;;;;;5061545;28;20048;-79
2022/06/24 00:36:57;;;;;;;5.13;2.42;;;22.50;99.90;;;;;;5062588;28;20041;-79
2022/06/24 00:39:33;;;;;;;5.80;2.78;;;22.30;99.90;;;;;;5061549;28;20522;-79
2022/06/24 00:42:01;;;;;;;2.72;1.63;;;22.20;99.90;;;;;;5061662;28;20100;-79
2022/06/24 00:44:33;;;;;;;4.18;2.45;;;22.10;99.90;;;;;;5059261;28;20598;-79
2022/06/24 00:47:00;;;;;;;3.55;1.88;;;22.10;99.90;;;;;;5061533;28;20033;-80
2022/06/24 00:49:27;;;;;;;2.65;1.73;;;22.10;99.90;;;;;;5043905;28;20047;-79
2022/06/24 00:51:53;;;;;;;3.95;2.03;;;22.20;99.90;;;;;;5078016;28;20037;-79
2022/06/24 00:54:23;;;;;;;6.18;2.30;;;22.20;99.90;;;;;;5059555;28;20099;-79
2022/06/24 00:56:56;;;;;;;4.88;2.55;;;22.20;99.90;;;;;;5075821;28;20044;-80
2022/06/24 00:59:23;;;;;;;5.25;1.90;;;22.10;99.90;;;;;;5062196;28;20510;-80
2022/06/24 01:01:49;;;;;;;6.72;2.00;;;22.20;99.90;;;;;;5074977;28;20044;-80
2022/06/24 01:04:15;;;;;;;8.82;2.22;;;22.10;99.90;;;;;;5060355;28;20353;-80
2022/06/24 01:06:43;;;;;;;3.30;2.03;;;22.10;99.90;;;;;;5058598;28;20102;-79
2022/06/24 01:09:10;;;;;;;4.00;1.88;;;22.10;99.90;;;;;;5060859;28;20037;-79
2022/06/24 01:11:38;;;;;;;4.25;2.35;;;22.10;99.90;;;;;;5059874;28;20045;-80
2022/06/24 01:14:05;;;;;;;5.35;2.00;;;22.10;99.90;;;;;;5077890;28;20427;-80
2022/06/24 01:16:31;;;;;;;5.88;2.88;;;22.10;99.90;;;;;;5056409;28;20055;-80
2022/06/24 01:19:11;;;;;;;8.02;2.85;;;22.10;99.90;;;;;;5061851;28;20037;-80
2022/06/24 01:21:37;;;;;;;3.25;1.92;;;22.00;99.90;;;;;;5058939;28;20067;-79
2022/06/24 01:24:19;;;;;;;3.80;2.22;;;21.90;99.90;;;;;;5060845;28;20048;-80
2022/06/24 01:26:47;;;;;;;4.57;1.98;;;22.00;99.90;;;;;;5058483;28;20075;-79
2022/06/24 01:29:14;;;;;;;4.20;2.20;;;21.90;99.90;;;;;;5060147;28;20037;-79
2022/06/24 01:31:41;;;;;;;4.15;2.08;;;21.90;99.90;;;;;;5057569;28;20485;-79
2022/06/24 01:34:08;;;;;;;5.78;2.50;;;21.90;99.90;;;;;;5058639;28;20870;-79
2022/06/24 01:36:34;;;;;;;2.63;1.88;;;21.90;99.90;;;;;;5059913;28;20041;-79
2022/06/24 01:39:00;;;;;;;3.95;2.15;;;21.70;99.90;;;;;;5061412;28;20045;-79
2022/06/24 01:41:26;;;;;;;8.32;3.35;;;21.80;99.90;;;;;;5059720;28;20056;-83
2022/06/24 01:43:51;;;;;;;5.68;2.05;;;21.90;99.90;;;;;;5059516;28;20075;-81
2022/06/24 01:46:17;;;;;;;3.60;1.63;;;21.80;99.90;;;;;;5059538;28;20136;-81
2022/06/24 01:48:43;;;;;;;5.97;2.08;;;21.80;99.90;;;;;;5043303;28;20043;-80
2022/06/24 01:51:12;;;;;;;2.58;1.83;;;21.80;99.90;;;;;;5057464;28;20056;-80
2022/06/24 01:53:38;;;;;;;4.60;2.15;;;21.70;99.90;;;;;;5057487;28;20056;-81
2022/06/24 01:56:04;;;;;;;4.93;2.03;;;21.70;99.90;;;;;;5059872;28;20235;-81
2022/06/24 01:58:30;;;;;;;4.32;1.98;;;21.70;99.90;;;;;;5060749;28;20064;-81
2022/06/24 02:00:56;;;;;;;6.43;2.30;;;21.70;99.90;;;;;;5059234;28;20076;-79
2022/06/24 02:03:22;;;;;;;5.53;2.38;;;21.80;99.90;;;;;;5057802;28;21813;-79
2022/06/24 02:05:47;;;;;;;4.38;2.05;;;21.80;99.90;;;;;;5058442;28;20041;-79
2022/06/24 02:08:14;;;;;;;4.68;2.00;;;21.70;99.90;;;;;;5061046;28;20132;-79
2022/06/24 02:13:27;;;;;;;4.45;2.05;;;21.90;99.90;;;;;;5060851;28;20126;-79
2022/06/24 02:16:04;;;;;;;3.05;2.00;;;21.70;99.90;;;;;;5059855;28;20103;-79
2022/06/24 02:18:31;;;;;;;7.63;3.05;;;21.60;99.90;;;;;;5060740;28;20075;-79
2022/06/24 02:20:58;;;;;;;3.40;2.00;;;21.60;99.90;;;;;;5058482;28;20028;-79
2022/06/24 02:23:24;;;;;;;5.05;2.70;;;21.60;99.90;;;;;;5060506;28;20461;-79
2022/06/24 02:25:51;;;;;;;5.60;2.75;;;21.40;99.90;;;;;;5060752;28;20499;-79
2022/06/24 02:28:17;;;;;;;3.10;2.28;;;21.50;99.90;;;;;;5060888;28;20049;-79
2022/06/24 02:30:45;;;;;;;4.38;2.17;;;21.50;99.90;;;;;;5061325;28;20124;-79
2022/06/24 02:33:12;;;;;;;3.58;2.17;;;21.50;99.90;;;;;;5059384;28;20094;-79
2022/06/24 02:35:39;;;;;;;7.43;1.95;;;21.50;99.90;;;;;;5057597;28;20132;-80
2022/06/24 02:38:05;;;;;;;3.38;2.67;;;21.50;99.90;;;;;;5062040;28;20048;-80
2022/06/24 02:40:51;;;;;;;4.47;2.28;;;21.40;99.90;;;;;;5061057;28;20526;-80
2022/06/24 02:43:29;;;;;;;6.35;3.10;;;21.40;99.90;;;;;;5057369;28;20045;-80
2022/06/24 02:46:02;;;;;;;2.55;2.00;;;21.40;99.90;;;;;;5057500;28;20052;-80
2022/06/24 02:48:29;;;;;;;7.15;2.13;;;21.40;99.90;;;;;;5044348;28;20040;-80
2022/06/24 02:50:59;;;;;;;8.10;3.50;;;21.40;99.90;;;;;;5074225;28;20075;-80
2022/06/24 02:53:26;;;;;;;4.25;2.25;;;21.40;99.90;;;;;;5060822;28;20045;-79
2022/06/24 02:55:57;;;;;;;3.35;1.85;;;21.40;99.90;;;;;;5057418;28;20102;-80
2022/06/24 02:58:23;;;;;;;4.83;2.30;;;21.30;99.90;;;;;;5060063;28;20064;-80
2022/06/24 03:00:49;;;;;;;5.93;2.40;;;21.40;99.90;;;;;;5059636;28;21966;-79
2022/06/24 03:03:18;;;;;;;4.00;2.10;;;21.30;99.90;;;;;;5059538;28;20048;-79
2022/06/24 03:05:45;;;;;;;3.58;2.30;;;21.30;99.90;;;;;;5058695;28;20051;-80
2022/06/24 03:08:13;;;;;;;5.55;2.63;;;21.30;99.90;;;;;;5060535;28;20045;-82
2022/06/24 03:10:39;;;;;;;9.27;2.40;;;21.30;99.90;;;;;;5058551;28;20044;-82
2022/06/24 03:13:05;;;;;;;4.70;1.95;;;21.30;99.90;;;;;;5059766;28;20041;-82
2022/06/24 03:15:31;;;;;;;3.42;2.20;;;21.20;99.90;;;;;;5059566;28;20068;-82
2022/06/24 03:17:58;;;;;;;5.97;2.28;;;21.20;99.90;;;;;;5060306;28;20041;-83
2022/06/24 03:20:24;;;;;;;4.25;1.70;;;21.10;99.90;;;;;;5063433;28;20084;-82
2022/06/24 03:22:50;;;;;;;4.22;1.63;;;21.10;99.90;;;;;;5062548;28;20045;-82
2022/06/24 03:25:15;;;;;;;3.63;1.65;;;21.00;99.90;;;;;;5063269;28;20213;-81
2022/06/24 03:27:41;;;;;;;4.50;2.13;;;20.90;99.90;;;;;;5062449;28;20033;-81
2022/06/24 03:30:09;;;;;;;3.97;1.80;;;21.00;99.90;;;;;;5063904;28;20135;-80
2022/06/24 03:32:35;;;;;;;4.95;1.75;;;20.90;99.90;;;;;;5063446;28;20049;-80
2022/06/24 03:35:01;;;;;;;4.85;1.92;;;20.90;99.90;;;;;;5077424;28;20131;-80
2022/06/24 03:37:29;;;;;;;4.45;1.83;;;20.90;99.90;;;;;;5077665;28;20040;-81
2022/06/24 03:39:55;;;;;;;5.53;2.53;;;20.80;99.90;;;;;;5061496;28;20044;-81
2022/06/24 03:42:21;;;;;;;3.22;1.85;;;20.80;99.90;;;;;;5060814;28;20053;-81
2022/06/24 03:44:47;;;;;;;2.50;1.55;;;20.80;99.90;;;;;;5062762;28;20125;-82
2022/06/24 03:47:13;;;;;;;2.95;1.83;;;20.80;99.90;;;;;;5076328;28;20037;-79
2022/06/24 03:49:39;;;;;;;9.50;2.90;;;20.70;99.90;;;;;;5061261;28;20045;-81
2022/06/24 03:52:05;;;;;;;3.10;2.35;;;20.70;99.90;;;;;;5061057;28;20091;-80
2022/06/24 03:54:31;;;;;;;5.55;2.00;;;20.70;99.90;;;;;;5062474;28;20515;-81
2022/06/24 03:56:57;;;;;;;3.15;1.88;;;20.70;99.90;;;;;;5058858;28;20047;-81
2022/06/24 03:59:23;;;;;;;3.42;1.80;;;20.60;99.90;;;;;;5060453;28;20047;-80
2022/06/24 04:01:49;;;;;;;5.60;1.98;;;20.60;99.90;;;;;;5060177;28;20037;-79
2022/06/24 04:04:15;;;;;;;2.50;1.55;;;20.60;99.90;;;;;;5076973;28;20853;-80
2022/06/24 04:06:40;;;;;;;3.58;1.45;;;20.60;99.90;;;;;;5057815;28;20047;-81
2022/06/24 04:09:06;;;;;;;3.85;2.10;;;20.50;99.90;;;;;;5061832;28;20144;-81
2022/06/24 04:11:32;;;;;;;8.48;3.08;;;20.50;99.90;;;;;;5060046;28;20045;-82
2022/06/24 04:14:02;;;;;;;5.40;2.22;;;20.50;99.90;;;;;;5059515;28;20037;-82
2022/06/24 04:16:28;;;;;;;3.08;2.00;;;20.50;99.90;;;;;;5060741;28;20095;-82
2022/06/24 04:18:54;;;;;;;3.38;1.63;;;20.50;99.90;;;;;;5060711;28;20041;-81
2022/06/24 04:21:21;;;;;;;4.05;1.85;;;20.60;99.90;;;;;;5060476;28;20426;-82
2022/06/24 04:23:51;;;;;;;4.03;1.80;;;20.60;99.90;;;;;;5061086;28;20038;-79
2022/06/24 04:26:18;;;;;;;2.60;1.70;;;20.50;99.90;;;;;;5061757;28;20472;-80
2022/06/24 04:28:45;;;;;;;5.25;1.52;;;20.50;99.90;;;;;;5062587;28;20473;-79
2022/06/24 04:31:11;;;;;;;3.47;1.60;;;20.50;99.90;;;;;;5061101;28;20073;-79
2022/06/24 04:33:37;;;;;;;2.08;1.50;;;20.50;99.90;;;;;;5061865;28;20048;-80
2022/06/24 04:36:09;;;;;;;24.38;2.47;;;20.60;99.90;;;;;;5063191;28;20047;-79
2022/06/24 04:38:35;;;;;;;6.20;2.28;;;20.60;99.90;;;;;;5065318;28;20041;-79
2022/06/24 04:41:08;;;;;;;3.42;1.45;;;20.50;99.90;;;;;;5061356;28;20045;-79
2022/06/24 04:43:34;;;;;;;5.05;1.92;;;20.50;99.90;;;;;;5062686;28;20063;-79
2022/06/24 04:46:01;;;;;;;5.07;1.95;;;20.50;99.90;;;;;;5062280;28;20048;-79
2022/06/24 04:48:27;;;;;;;5.22;2.25;;;20.50;99.90;;;;;;5065423;28;20169;-79
2022/06/24 04:50:53;;;;;;;3.75;1.83;;;20.50;99.90;;;;;;5058066;28;20041;-78
2022/06/24 04:53:19;;;;;;;3.85;2.17;;;20.50;99.90;;;;;;5060700;28;20041;-79
2022/06/24 04:55:45;;;;;;;3.95;1.75;;;20.60;99.90;;;;;;5062753;28;20084;-79
2022/06/24 04:58:11;;;;;;;6.03;2.00;;;20.70;99.90;;;;;;5063601;28;20094;-80
2022/06/24 05:00:37;;;;;;;4.13;2.30;;;20.70;99.90;;;;;;5047245;28;20049;-80
2022/06/24 05:03:03;;;;;;;9.90;2.58;;;20.70;99.90;;;;;;5064560;28;20029;-80
2022/06/24 05:05:29;;;;;;;7.25;2.10;;;20.70;99.90;;;;;;5060891;28;20044;-79
2022/06/24 05:07:54;;;;;;;4.07;1.95;;;20.70;99.90;;;;;;5059107;28;20457;-79
2022/06/24 05:10:20;;;;;;;7.80;2.17;;;20.70;99.90;;;;;;5072725;28;20628;-79
2022/06/24 05:12:46;;;;;;;8.68;2.55;;;20.70;99.90;;;;;;5057806;28;20044;-79
2022/06/24 05:15:12;;;;;;;7.07;2.20;;;20.60;99.90;;;;;;5062837;28;20102;-80
2022/06/24 05:17:37;;;;;;;3.70;2.08;;;20.60;99.90;;;;;;5060606;28;20048;-79
2022/06/24 05:20:03;;;;;;;6.53;2.30;;;20.60;99.90;;;;;;5060762;28;20094;-78
2022/06/24 05:22:30;;;;;;;4.43;2.00;;;20.60;99.90;;;;;;5059476;28;20060;-79
2022/06/24 05:24:55;;;;;;;5.45;3.10;;;20.60;99.90;;;;;;5059170;28;20044;-78
2022/06/24 05:27:21;;;;;;;12.18;2.88;;;20.50;99.90;;;;;;5058445;28;20045;-79
2022/06/24 05:29:47;;;;;;;4.60;2.03;;;20.60;99.90;;;;;;5040523;28;20044;-79
2022/06/24 05:32:13;;;;;;;6.20;2.40;;;20.60;99.90;;;;;;5059337;28;20772;-79
2022/06/24 05:34:38;;;;;;;6.32;3.03;;;20.70;99.90;;;;;;5059799;28;20045;-78
2022/06/24 05:37:04;;;;;;;10.82;3.55;;;20.80;99.90;;;;;;5058794;28;20550;-78
2022/06/24 05:39:30;;;;;;;9.10;3.08;;;20.80;99.90;;;;;;5059021;28;20056;-78
2022/06/24 05:41:56;;;;;;;9.68;2.20;;;20.80;99.90;;;;;;5058831;28;20061;-80
2022/06/24 05:44:21;;;;;;;7.65;2.30;;;20.80;99.90;;;;;;5060408;28;20060;-80
2022/06/24 05:46:47;;;;;;;4.93;2.30;;;20.80;99.90;;;;;;5058091;28;20068;-78
2022/06/24 05:49:13;;;;;;;4.80;2.15;;;20.80;99.90;;;;;;5059172;28;20056;-79
2022/06/24 05:51:39;;;;;;;7.53;2.97;;;20.80;99.90;;;;;;5060125;28;20041;-78
2022/06/24 05:56:49;;;;;;;11.35;2.58;;;20.80;99.90;;;;;;5060711;28;20872;-79
2022/06/24 05:59:15;;;;;;;8.98;2.45;;;20.80;99.90;;;;;;5061519;28;20045;-80
2022/06/24 06:01:41;;;;;;;4.53;2.45;;;20.80;99.90;;;;;;5059697;28;20047;-79
2022/06/24 06:04:07;;;;;;;5.60;2.42;;;20.80;99.90;;;;;;5074178;28;20172;-79
2022/06/24 06:06:34;;;;;;;6.95;3.08;;;20.80;99.90;;;;;;5060080;28;20051;-79
2022/06/24 06:09:00;;;;;;;3.95;2.17;;;20.80;99.90;;;;;;5058521;28;20490;-80
2022/06/24 06:11:26;;;;;;;3.85;2.20;;;20.80;99.90;;;;;;5064436;28;20503;-80
2022/06/24 06:13:54;;;;;;;4.57;2.95;;;20.90;99.90;;;;;;5046065;28;20095;-80
2022/06/24 06:16:22;;;;;;;6.00;3.13;;;20.90;99.90;;;;;;5062405;28;20084;-80
2022/06/24 06:18:48;;;;;;;9.68;3.42;;;20.90;99.90;;;;;;5063714;28;20045;-79
2022/06/24 06:21:15;;;;;;;6.75;3.30;;;21.00;99.90;;;;;;5064808;28;20102;-80
2022/06/24 06:23:42;;;;;;;5.18;2.25;;;21.00;99.90;;;;;;5063693;28;20040;-80
2022/06/24 06:26:09;;;;;;;3.30;2.10;;;21.10;99.90;;;;;;5065117;28;20103;-80
2022/06/24 06:28:37;;;;;;;5.28;2.22;;;21.10;99.90;;;;;;5063570;28;20521;-80
2022/06/24 06:31:03;;;;;;;7.95;2.38;;;21.10;99.90;;;;;;5063895;28;20134;-80
2022/06/24 06:33:31;;;;;;;2.97;1.92;;;21.10;99.90;;;;;;5063319;28;20194;-80
2022/06/24 06:36:11;;;;;;;3.08;1.73;;;21.20;99.90;;;;;;5065243;28;20120;-80
2022/06/24 06:38:37;;;;;;;6.65;2.90;;;21.40;99.90;;;;;;5062369;28;20059;-79
2022/06/24 06:41:03;;;;;;;3.88;2.13;;;21.30;99.90;;;;;;5061363;28;20569;-79
2022/06/24 06:43:30;;;;;;;4.65;2.60;;;21.40;99.90;;;;;;5075467;28;20049;-79
2022/06/24 06:45:56;;;;;;;6.28;2.10;;;21.40;99.90;;;;;;5061110;28;20049;-79
2022/06/24 06:48:23;;;;;;;4.43;2.65;;;21.40;99.90;;;;;;5062762;28;20076;-80
2022/06/24 06:50:56;;;;;;;8.00;3.70;;;21.40;99.90;;;;;;5060790;28;20047;-79
2022/06/24 06:53:23;;;;;;;4.70;1.77;;;21.40;99.90;;;;;;5063947;28;20091;-78
2022/06/24 06:55:50;;;;;;;5.55;2.53;;;21.40;99.90;;;;;;5066837;28;20068;-81
2022/06/24 06:58:16;;;;;;;5.30;2.40;;;21.40;99.90;;;;;;5063732;28;20146;-78
2022/06/24 07:00:43;;;;;;;5.72;2.10;;;21.40;99.90;;;;;;5065342;28;20043;-80
2022/06/24 07:03:09;;;;;;;5.43;2.08;;;21.40;99.90;;;;;;5064035;28;20518;-80
2022/06/24 07:05:34;;;;;;;7.82;2.67;;;21.40;99.90;;;;;;5063184;28;20039;-80
2022/06/24 07:08:00;;;;;;;3.70;1.83;;;21.50;99.90;;;;;;5081536;27;20664;-79
2022/06/24 07:10:26;;;;;;;2.97;2.00;;;21.50;99.90;;;;;;5067096;28;20558;-80
2022/06/24 07:12:52;;;;;;;5.15;1.40;;;21.60;99.90;;;;;;5066263;28;20407;-80
2022/06/24 07:15:18;;;;;;;4.80;1.75;;;21.70;99.90;;;;;;5065673;28;20040;-79
2022/06/24 07:17:43;;;;;;;4.20;1.83;;;21.80;99.90;;;;;;5063163;28;20171;-80
2022/06/24 07:20:10;;;;;;;2.25;1.20;;;21.90;99.90;;;;;;5064840;28;20043;-80
2022/06/24 07:22:35;;;;;;;2.72;1.52;;;22.00;99.90;;;;;;5065108;28;20122;-79
2022/06/24 07:25:01;;;;;;;2.60;1.58;;;22.00;99.90;;;;;;5067029;28;20048;-80
2022/06/24 07:27:27;;;;;;;5.50;1.30;;;22.10;99.90;;;;;;5065071;28;20048;-80
2022/06/24 07:29:53;;;;;;;4.85;1.40;;;22.20;99.90;;;;;;5065418;28;20060;-80
2022/06/24 07:32:18;;;;;;;1.23;0.88;;;22.20;99.90;;;;;;5061962;28;20041;-79
2022/06/24 07:34:44;;;;;;;3.00;1.45;;;22.20;99.90;;;;;;5063722;28;20056;-80
2022/06/24 07:37:10;;;;;;;4.55;0.85;;;22.30;99.90;;;;;;5062434;28;20063;-80
2022/06/24 07:39:36;;;;;;;0.85;0.75;;;22.30;99.90;;;;;;5064614;28;20041;-79
2022/06/24 07:42:02;;;;;;;1.48;0.90;;;22.30;99.90;;;;;;5065081;28;20084;-79
2022/06/24 07:44:28;;;;;;;2.13;1.38;;;22.30;99.90;;;;;;5066629;28;20517;-79
2022/06/24 07:46:53;;;;;;;0.88;0.60;;;22.50;99.90;;;;;;5065010;28;20054;-80
2022/06/24 07:49:19;;;;;;;3.17;1.30;;;22.60;99.90;;;;;;5065486;28;20041;-79
2022/06/24 07:51:45;;;;;;;2.28;1.13;;;22.60;99.90;;;;;;5064548;28;20511;-80
2022/06/24 07:54:11;;;;;;;2.58;0.95;;;22.60;99.90;;;;;;5063401;28;20041;-79
2022/06/24 07:59:45;;;;;;;3.25;1.20;;;22.40;99.90;;;;;;5062366;28;20045;-79
2022/06/24 08:02:10;;;;;;;2.00;1.15;;;22.40;99.90;;;;;;5046837;28;20052;-79
2022/06/24 08:04:36;;;;;;;2.22;0.75;;;22.40;99.90;;;;;;5064503;28;20041;-79
2022/06/24 08:07:04;;;;;;;1.88;0.98;;;22.60;99.90;;;;;;5064353;28;20135;-79
2022/06/24 08:09:32;;;;;;;2.08;0.93;;;22.50;99.90;;;;;;5062073;28;20976;-79
2022/06/24 08:12:00;;;;;;;2.63;1.42;;;22.40;99.90;;;;;;5063999;28;20048;-79
2022/06/24 08:14:26;;;;;;;1.30;0.90;;;22.40;99.90;;;;;;5063279;28;20079;-79
2022/06/24 08:16:51;;;;;;;2.88;1.35;;;22.20;99.90;;;;;;5064032;28;20090;-79
2022/06/24 08:19:17;;;;;;;3.13;1.23;;;22.20;99.90;;;;;;5061659;28;20045;-79
2022/06/24 08:21:43;;;;;;;2.38;1.45;;;22.10;99.90;;;;;;5064051;28;20071;-79
2022/06/24 08:24:09;;;;;;;2.00;1.27;;;22.10;99.90;;;;;;5066155;28;20076;-80
2022/06/24 08:26:35;;;;;;;2.38;1.45;;;22.10;99.90;;;;;;5066001;28;20040;-80
2022/06/24 08:29:01;;;;;;;4.55;2.10;;;22.20;99.90;;;;;;5065530;28;20530;-80
2022/06/24 08:31:27;;;;;;;2.13;1.15;;;22.30;99.90;;;;;;5080413;27;20116;-80
2022/06/24 08:33:53;;;;;;;2.55;1.42;;;22.30;99.90;;;;;;5064268;28;20040;-80
2022/06/24 08:36:19;;;;;;;2.92;1.10;;;22.30;99.90;;;;;;5064517;28;20161;-80
2022/06/24 08:38:46;;;;;;;3.38;1.20;;;22.40;99.90;;;;;;5064716;28;20089;-79
2022/06/24 08:41:18;;;;;;;3.72;1.30;;;22.40;99.90;;;;;;5063260;28;20090;-79
2022/06/24 08:43:47;;;;;;;4.47;1.75;;;22.30;99.90;;;;;;5066345;28;20049;-79
2022/06/24 08:46:13;;;;;;;3.17;1.30;;;22.50;99.90;;;;;;5081009;28;20045;-79
2022/06/24 08:48:38;;;;;;;2.67;1.27;;;22.60;99.90;;;;;;5065522;28;20037;-79
2022/06/24 08:51:05;;;;;;;2.33;1.20;;;22.60;99.90;;;;;;5064527;28;20033;-79
2022/06/24 08:53:34;;;;;;;2.92;1.38;;;22.60;99.90;;;;;;5064733;28;20095;-79
2022/06/24 08:56:00;;;;;;;5.22;0.93;;;22.70;99.90;;;;;;5063008;28;20564;-79
2022/06/24 08:58:26;;;;;;;2.55;1.02;;;22.80;99.90;;;;;;5065493;28;20041;-79
2022/06/24 09:00:51;;;;;;;2.70;1.10;;;22.90;99.90;;;;;;5065415;28;20041;-80
2022/06/24 09:03:17;;;;;;;3.42;1.45;;;22.90;99.90;;;;;;5066107;28;20041;-80
2022/06/24 09:05:43;;;;;;;6.97;4.07;;;22.80;99.90;;;;;;5061851;28;20067;-79
2022/06/24 09:08:11;;;;;;;4.78;2.35;;;22.70;99.90;;;;;;5063559;28;20624;-79
2022/06/24 09:10:39;;;;;;;4.70;1.83;;;22.60;99.90;;;;;;5061968;28;20041;-79
2022/06/24 09:13:05;;;;;;;2.50;1.73;;;22.50;99.90;;;;;;5064946;28;20447;-79
2022/06/24 09:15:32;;;;;;;3.65;2.10;;;22.60;99.90;;;;;;5059990;28;20041;-79
2022/06/24 09:17:59;;;;;;;1.63;1.13;;;22.60;99.90;;;;;;5061770;28;20593;-79
2022/06/24 09:20:27;;;;;;;1.65;1.05;;;22.70;99.90;;;;;;5061894;28;20045;-79
2022/06/24 09:23:07;;;;;;;1.33;1.00;;;22.70;99.90;;;;;;5064726;28;20569;-79
2022/06/24 09:25:51;;;;;;;4.90;1.40;;;22.90;99.90;;;;;;5064363;28;20060;-80
2022/06/24 09:28:28;;;;;;;2.50;1.50;;;23.10;99.90;;;;;;5061961;28;20546;-79
2022/06/24 09:31:04;;;;;;;2.30;1.25;;;23.20;99.90;;;;;;5065087;28;20037;-79
2022/06/24 09:33:42;;;;;;;3.03;1.88;;;23.30;99.90;;;;;;5061267;28;20075;-79
2022/06/24 09:36:09;;;;;;;0.77;0.75;;;23.20;99.90;;;;;;5063113;28;20051;-79
2022/06/24 09:38:55;;;;;;;3.20;1.15;;;23.20;99.90;;;;;;5060794;28;20044;-79
2022/06/24 09:41:22;;;;;;;4.50;1.23;;;23.10;99.90;;;;;;5062199;28;20144;-79
2022/06/24 09:43:49;;;;;;;2.30;1.20;;;22.90;99.90;;;;;;5046816;28;20057;-79
2022/06/24 09:46:23;;;;;;;2.63;1.00;;;22.90;99.90;;;;;;5063213;28;20049;-79
2022/06/24 09:48:57;;;;;;;0.65;0.65;;;22.90;99.90;;;;;;5062166;28;20119;-79
2022/06/24 09:51:23;;;;;;;2.25;0.95;;;23.00;99.90;;;;;;5080480;28;20044;-79
2022/06/24 09:53:51;;;;;;;1.70;1.13;;;22.90;99.90;;;;;;5078791;28;20045;-79
2022/06/24 09:56:17;;;;;;;1.08;0.65;;;22.80;99.90;;;;;;5061125;28;20064;-79
2022/06/24 10:00:40;;;;;;;2.22;1.08;;;22.90;99.90;;;;;;5061561;28;20051;-79
2022/06/24 10:01:34;;;;;;;0.98;0.80;;;23.00;99.90;;;;;;5065490;28;20033;-79
2022/06/24 10:04:02;;;;;;;2.05;1.02;;;23.10;99.90;;;;;;5064411;28;20434;-80
2022/06/24 10:06:30;;;;;;;0.82;0.70;;;23.10;99.90;;;;;;5063875;28;20128;-80
2022/06/24 10:08:59;;;;;;;2.30;0.73;;;23.20;99.90;;;;;;5073441;28;20044;-80
2022/06/24 10:11:26;;;;;;;2.17;0.95;;;23.10;99.90;;;;;;5061072;28;20037;-80
2022/06/24 10:13:54;;;;;;;1.60;1.10;;;23.00;99.90;;;;;;5062663;28;20114;-80
2022/06/24 10:16:21;;;;;;;2.90;1.83;;;22.90;99.90;;;;;;5064132;28;20156;-80
2022/06/24 10:18:49;;;;;;;2.70;1.13;;;22.90;99.90;;;;;;5062928;28;20519;-80
2022/06/24 10:21:17;;;;;;;1.73;0.80;;;22.90;99.90;;;;;;5063198;28;20047;-80
2022/06/24 10:23:44;;;;;;;3.72;1.88;;;23.00;99.90;;;;;;5061389;28;20045;-80
2022/06/24 10:26:13;;;;;;;3.92;1.33;;;23.10;99.90;;;;;;5077803;28;20098;-80
2022/06/24 10:29:03;;;;;;;4.13;0.95;;;23.20;99.90;;;;;;5065431;28;20040;-80
2022/06/24 10:32:02;;;;;;;1.95;1.08;;;23.50;99.90;;;;;;5067107;28;20048;-80
2022/06/24 10:34:33;;;;;;;1.25;0.85;;;23.70;99.90;;;;;;5064705;28;20151;-80
2022/06/24 10:37:12;;;;;;;1.42;0.90;;;23.80;99.90;;;;;;5064214;28;20064;-81
2022/06/24 10:39:46;;;;;;;1.67;1.00;;;23.90;99.90;;;;;;5048794;28;20049;-81
2022/06/24 10:42:15;;;;;;;1.80;1.00;;;23.80;99.90;;;;;;5065521;28;20043;-81
2022/06/24 10:45:03;;;;;;;1.17;0.88;;;23.80;99.90;;;;;;5064888;28;20465;-80
2022/06/24 10:47:34;;;;;;;2.13;0.90;;;23.90;99.90;;;;;;5064608;28;20043;-80
2022/06/24 10:50:01;;;;;;;3.65;1.10;;;24.00;99.90;;;;;;5067219;28;20036;-81
2022/06/24 10:52:33;;;;;;;2.42;0.88;;;24.20;99.90;;;;;;5066449;28;20615;-80
2022/06/24 10:55:29;;;;;;;;;;;24.20;99.90;;;;;;5082904;28;20042;-81
2022/06/24 10:58:08;;;;;;;2.42;1.10;;;24.20;99.90;;;;;;5064649;28;19924;-80
2022/06/24 11:00:37;;;;;;;1.60;0.80;;;24.40;99.90;;;;;;5064824;28;20041;-80
2022/06/24 11:03:05;;;;;;;6.78;1.13;;;24.50;99.90;;;;;;5066910;28;20541;-80
2022/06/24 11:05:34;;;;;;;2.25;0.85;;;24.50;99.90;;;;;;5079263;28;20043;-80
2022/06/24 11:08:01;;;;;;;4.70;1.25;;;24.40;99.90;;;;;;5064849;28;20051;-80
2022/06/24 11:10:30;;;;;;;2.08;0.98;;;24.10;99.90;;;;;;5066846;28;20043;-80
2022/06/24 11:12:59;;;;;;;2.45;1.35;;;23.90;99.90;;;;;;5066266;28;20033;-80
2022/06/24 11:15:34;;;;;;;2.85;1.63;;;23.90;99.90;;;;;;5067436;28;20045;-81
2022/06/24 11:18:26;;;;;;;1.50;1.10;;;24.00;99.90;;;;;;5062383;28;20634;-80
2022/06/24 11:21:04;;;;;;;3.35;1.77;;;24.00;99.90;;;;;;5080649;28;21061;-80
2022/06/24 11:23:35;;;;;;;3.67;0.98;;;24.10;99.90;;;;;;5065636;28;20036;-81
2022/06/24 11:26:18;;;;;;;2.83;1.17;;;24.30;99.90;;;;;;5082216;27;20041;-80
2022/06/24 11:28:51;;;;;;;2.25;1.08;;;24.20;99.90;;;;;;5081898;27;20049;-80
2022/06/24 11:31:22;;;;;;;3.83;0.85;;;24.00;99.90;;;;;;5065238;28;20534;-80
2022/06/24 11:33:50;;;;;;;3.03;1.13;;;23.90;99.90;;;;;;5061648;28;20079;-80
2022/06/24 11:36:20;;;;;;;2.75;1.27;;;24.00;99.90;;;;;;5066680;28;20112;-80
2022/06/24 11:39:02;;;;;;;2.95;1.30;;;24.30;99.90;;;;;;5080499;28;20228;-80
2022/06/24 11:41:30;;;;;;;2.50;1.30;;;24.40;99.90;;;;;;5064854;28;20094;-81
2022/06/24 11:43:56;;;;;;;5.28;1.33;;;24.40;99.90;;;;;;5065347;28;20051;-80
2022/06/24 11:46:22;;;;;;;3.70;1.98;;;24.30;99.90;;;;;;5065523;28;22008;-80
2022/06/24 11:49:11;;;;;;;4.22;1.83;;;24.10;99.90;;;;;;5065909;28;20134;-80
2022/06/24 11:51:38;;;;;;;6.38;2.05;;;23.90;99.90;;;;;;5065645;28;20048;-81
2022/06/24 11:54:06;;;;;;;5.95;2.42;;;23.90;99.90;;;;;;5064411;28;20544;-80
2022/06/24 11:56:33;;;;;;;3.92;1.70;;;24.00;99.90;;;;;;5064596;28;20562;-81
2022/06/24 11:59:00;;;;;;;2.13;1.25;;;24.10;99.90;;;;;;5065477;28;20052;-80
2022/06/24 12:01:28;;;;;;;3.00;1.63;;;24.30;99.90;;;;;;5049220;28;20537;-80
2022/06/24 12:03:56;;;;;;;1.75;1.02;;;24.30;99.90;;;;;;5048085;28;20122;-81
2022/06/24 12:06:22;;;;;;;4.30;1.05;;;24.40;99.90;;;;;;5060644;28;20561;-81
2022/06/24 12:08:49;;;;;;;2.63;0.80;;;24.60;99.90;;;;;;5064442;28;20033;-81
2022/06/24 12:11:24;;;;;;;2.25;1.38;;;24.70;99.90;;;;;;5059390;28;20049;-81
2022/06/24 12:14:02;;;;;;;2.40;0.80;;;24.90;99.50;;;;;;5063758;28;20048;-81
2022/06/24 12:16:48;;;;;;;1.70;1.02;;;25.10;98.80;;;;;;5080264;28;20049;-80
2022/06/24 12:19:15;;;;;;;2.50;1.52;;;25.20;98.10;;;;;;5064831;28;20094;-81
2022/06/24 12:21:40;;;;;;;1.38;1.10;;;25.30;97.90;;;;;;5062674;28;20616;-80
2022/06/24 12:24:26;;;;;;;2.20;1.30;;;25.20;97.30;;;;;;5082446;28;20033;-81
2022/06/24 12:26:54;;;;;;;1.08;0.85;;;25.20;97.00;;;;;;5060684;28;20056;-81
2022/06/24 12:29:30;;;;;;;2.15;1.17;;;25.20;97.10;;;;;;5065436;28;20060;-81
2022/06/24 12:31:57;;;;;;;3.13;1.20;;;25.30;96.70;;;;;;5064256;28;20048;-81
2022/06/24 12:34:30;;;;;;;6.68;1.77;;;25.20;96.40;;;;;;5062796;28;20040;-81
2022/06/24 12:37:01;;;;;;;3.13;1.50;;;25.10;96.40;;;;;;5065774;28;20052;-81
2022/06/24 12:39:29;;;;;;;2.38;1.05;;;25.10;96.40;;;;;;5064525;28;20149;-81
2022/06/24 12:41:55;;;;;;;1.75;1.10;;;25.10;96.20;;;;;;5058823;28;20057;-81
2022/06/24 12:44:22;;;;;;;3.63;1.27;;;25.00;96.30;;;;;;5058637;28;20048;-81
2022/06/24 12:52:40;;;;;;;2.78;1.88;;;24.50;95.70;;;;;;5059045;28;20053;-80
2022/06/24 12:55:08;;;;;;;1.85;1.20;;;24.40;95.90;;;;;;5058946;28;20364;-80
2022/06/24 12:57:35;;;;;;;2.55;1.25;;;24.50;96.20;;;;;;5053198;28;20566;-80
2022/06/24 13:00:04;;;;;;;2.53;1.58;;;24.60;96.30;;;;;;5057568;28;20542;-79
2022/06/24 13:02:30;;;;;;;2.70;1.40;;;24.80;96.30;;;;;;5060907;28;20530;-79
2022/06/24 13:04:56;;;;;;;4.82;1.58;;;25.00;96.20;;;;;;5061575;28;20041;-80
2022/06/24 13:07:22;;;;;;;3.35;2.40;;;25.00;96.00;;;;;;5060653;28;20156;-80
2022/06/24 13:09:48;;;;;;;2.97;1.42;;;24.90;95.80;;;;;;5058129;28;20821;-79